PAVD Airport Information

Runway Information
Runway 06 Length 6508 ft width 150 ft
Elevation 39 ft Threshold 0 ft Heading 81
Runway 24 Length 6508 ft Width 150 ft
Elevation 118 ft Threshold 0 ft Heading 261
Airport Frequencies
Type AWOS Name AWOS 3 Frequency 118.8 MHZ
Type CNTR Name ANCHORAGE Frequency 119.3 MHZ
Type CTAF Name CTAF Frequency 122.9 MHZ
Type FSS Name JUNEAU RDO Frequency 122.2 MHZ
Airport Navaids
Type NDB Name Mineral Creek Frequency 524 KHZ
Airport Weather Information & NOTAM
ADDS - METARS form results

(1107 UTC 23 January 2019)
Data provider http://aviationweather.gov/metar/data/
 
METAR text: PAVD 231104Z AUTO 36003KT 1SM -SN BR BKN019 OVC025 M03/M04 A2999 RMK AO2 P0000 FZRANO
Conditions at: PAVD (VALDEZ , AK, US) observed 1104 UTC 23 January 2019
Temperature: -3.0°C (27°F)
Dewpoint: -4.0°C (25°F) [RH = 93%]
Pressure (altimeter): 29.99 inches Hg (1015.7 mb)
Winds: from the N (360 degrees) at 3 MPH (3 knots; 1.5 m/s)
Visibility: 1.00 miles (1.61 km)
Ceiling: 1900 feet AGL
Clouds: broken clouds at 1900 feet AGL
overcast cloud deck at 2500 feet AGL
Weather: -SN BR  (light snow, mist)

METAR text: PAVD 231056Z AUTO 00000KT 2SM -SN BR OVC023 M03/M04 A2999 RMK AO2 SLP180 P0000 T10281044 FZRANO
Conditions at: PAVD (VALDEZ , AK, US) observed 1056 UTC 23 January 2019
Temperature: -2.8°C (27°F)
Dewpoint: -4.4°C (24°F) [RH = 89%]
Pressure (altimeter): 29.99 inches Hg (1015.7 mb)
[Sea-level pressure: 1018.0 mb]
Winds: calm
Visibility: 2.00 miles (3.22 km)
Ceiling: 2300 feet AGL
Clouds: overcast cloud deck at 2300 feet AGL
Weather: -SN BR  (light snow, mist)

METAR text: PAVD 231043Z AUTO 00000KT 1 1/2SM -SN BR BKN021 OVC027 M03/M04 A2998 RMK AO2 P0000 FZRANO
Conditions at: PAVD (VALDEZ , AK, US) observed 1043 UTC 23 January 2019
Temperature: -3.0°C (27°F)
Dewpoint: -4.0°C (25°F) [RH = 93%]
Pressure (altimeter): 29.98 inches Hg (1015.3 mb)
Winds: calm
Visibility: 1.50 miles (2.41 km)
Ceiling: 2100 feet AGL
Clouds: broken clouds at 2100 feet AGL
overcast cloud deck at 2700 feet AGL
Weather: -SN BR  (light snow, mist)

METAR text: PAVD 231029Z AUTO 00000KT 2 1/2SM -SN BR SCT021 OVC027 M03/M04 A2998 RMK AO2 VIS 2V5 P0000 FZRANO
Conditions at: PAVD (VALDEZ , AK, US) observed 1029 UTC 23 January 2019
Temperature: -3.0°C (27°F)
Dewpoint: -4.0°C (25°F) [RH = 93%]
Pressure (altimeter): 29.98 inches Hg (1015.3 mb)
Winds: calm
Visibility: 2.50 miles (4.02 km)
Ceiling: 2700 feet AGL
Clouds: scattered clouds at 2100 feet AGL
overcast cloud deck at 2700 feet AGL
Weather: -SN BR  (light snow, mist)

METAR text: PAVD 231016Z AUTO 00000KT 1 1/4SM -SN BR SCT021 OVC027 M03/M05 A2998 RMK AO2 P0000 FZRANO
Conditions at: PAVD (VALDEZ , AK, US) observed 1016 UTC 23 January 2019
Temperature: -3.0°C (27°F)
Dewpoint: -5.0°C (23°F) [RH = 86%]
Pressure (altimeter): 29.98 inches Hg (1015.3 mb)
Winds: calm
Visibility: 1.25 miles (2.01 km)
Ceiling: 2700 feet AGL
Clouds: scattered clouds at 2100 feet AGL
overcast cloud deck at 2700 feet AGL
Weather: -SN BR  (light snow, mist)

Forecast for: PAVD (VALDEZ , AK, US)
Text: PAVD 230524Z 2306/2406 VRB03KT 6SM -SHSN SCT030 OVC045
Forecast period: 0600 to 1000 UTC 23 January 2019
Forecast type: FROM: standard forecast or significant change
Winds: variable direction winds at 3 MPH (3 knots; 1.5 m/s)
Visibility: 6 miles (10 km)
Ceiling: 4500 feet AGL
Clouds: scattered clouds at 3000 feet AGL
overcast cloud deck at 4500 feet AGL
Weather: -SHSN  (light snow showers)
Text: TEMPO 2306/2310 3SM -SHSN OVC030
Forecast period: 0600 to 1000 UTC 23 January 2019
Forecast type: TEMPORARY: The following changes expected for less than half the time period
Visibility: 3 miles (5 km)
Ceiling: 3000 feet AGL
Clouds: overcast cloud deck at 3000 feet AGL
Weather: -SHSN  (light snow showers)
Text: FM231000 VRB03KT 2SM -SN BR OVC020
Forecast period: 1000 to 1800 UTC 23 January 2019
Forecast type: FROM: standard forecast or significant change
Winds: variable direction winds at 3 MPH (3 knots; 1.5 m/s)
Visibility: 2.00 miles (3.22 km)
Ceiling: 2000 feet AGL
Clouds: overcast cloud deck at 2000 feet AGL
Weather: -SN BR  (light snow, mist)
Text: FM231800 VRB03KT 3SM -SNRA BR OVC025 AMD LTD TO CLD VIS AND WIND
Forecast period: 1800 UTC 23 January 2019 to 0600 UTC 24 January 2019
Forecast type: FROM: standard forecast or significant change
Winds: variable direction winds at 3 MPH (3 knots; 1.5 m/s)
Visibility: 3 miles (5 km)
Ceiling: 2500 feet AGL
Clouds: overcast cloud deck at 2500 feet AGL
Weather: -SN -RA BR  (light snow, light rain, mist)